createdAt,value
2018-03-30T20:52:35.740Z,11.47
2018-03-30T20:55:24.464Z,11.00
2018-03-30T20:57:51.829Z,10.70
2018-03-30T21:00:18.960Z,10.50
2018-03-30T21:02:46.902Z,10.37
2018-03-30T21:05:14.231Z,10.87
2018-03-30T21:07:42.974Z,11.87
2018-03-30T21:10:10.907Z,11.53
2018-03-30T21:12:39.639Z,12.20
2018-03-30T21:15:06.934Z,11.93
2018-03-30T21:17:34.086Z,12.00
2018-03-30T21:20:01.247Z,11.45
2018-03-30T21:22:28.390Z,12.88
2018-03-30T21:24:55.544Z,12.50
2018-03-30T21:27:23.527Z,11.87
2018-03-30T21:29:50.758Z,12.23
2018-03-30T21:32:18.091Z,11.50
2018-03-30T21:34:45.280Z,11.80
2018-03-30T21:37:12.435Z,12.17
2018-03-30T21:39:40.162Z,12.70
2018-03-30T21:42:07.343Z,11.83
2018-03-30T21:44:34.550Z,12.10
2018-03-30T21:47:01.768Z,11.77
2018-03-30T21:49:29.961Z,11.80
2018-03-30T21:51:57.120Z,12.40
2018-03-30T21:54:24.256Z,11.53
2018-03-30T21:56:54.339Z,12.10
2018-03-30T21:59:24.553Z,11.33
2018-03-30T22:01:53.844Z,12.07
2018-03-30T22:04:21.299Z,11.87
2018-03-30T22:06:48.475Z,11.70
2018-03-30T22:09:15.689Z,12.25
2018-03-30T22:11:42.866Z,11.33
2018-03-30T22:14:10.002Z,12.67
2018-03-30T22:16:37.254Z,12.23
2018-03-30T22:19:04.403Z,12.65
2018-03-30T22:21:31.536Z,12.20
2018-03-30T22:23:58.769Z,12.82
2018-03-30T22:26:27.521Z,12.73
2018-03-30T22:28:54.713Z,12.60
2018-03-30T22:31:21.926Z,13.27
2018-03-30T22:33:49.094Z,13.37
2018-03-30T22:36:17.028Z,13.20
2018-03-30T22:38:44.214Z,13.10
2018-03-30T22:41:12.129Z,13.00
2018-03-30T22:43:39.280Z,12.83
2018-03-30T22:46:06.452Z,12.70
2018-03-30T22:48:33.605Z,12.23
2018-03-30T22:51:00.796Z,12.00
2018-03-30T22:53:27.940Z,11.77
2018-03-30T22:55:55.872Z,11.97
2018-03-30T22:58:23.055Z,11.87
2018-03-30T23:00:50.959Z,11.73
2018-03-30T23:03:18.087Z,12.10
2018-03-30T23:05:45.266Z,11.30
2018-03-30T23:08:12.395Z,11.88
2018-03-30T23:10:39.561Z,11.67
2018-03-30T23:13:06.762Z,11.67
2018-03-30T23:15:33.938Z,12.30
2018-03-30T23:18:01.062Z,12.57
2018-03-30T23:20:28.184Z,12.73
2018-03-30T23:22:55.350Z,12.63
2018-03-30T23:25:22.507Z,13.20
2018-03-30T23:27:49.646Z,12.07
2018-03-30T23:30:16.877Z,14.03
2018-03-30T23:32:44.077Z,13.40
2018-03-30T23:35:11.964Z,13.67
2018-03-30T23:37:39.102Z,13.47
2018-03-30T23:40:07.032Z,13.80
2018-03-30T23:42:34.164Z,12.97
2018-03-30T23:45:01.361Z,12.67
2018-03-30T23:47:29.293Z,12.97
2018-03-30T23:49:56.428Z,12.70
2018-03-30T23:52:23.690Z,13.03
2018-03-30T23:54:50.840Z,12.67
2018-03-30T23:57:18.032Z,13.40
2018-03-30T23:59:45.960Z,13.07
